createdAt,value
2022-12-03T00:00:43.379Z,4.75
2022-12-03T00:03:13.424Z,5.03
2022-12-03T00:05:48.849Z,5.40
2022-12-03T00:08:19.235Z,5.16
2022-12-03T00:10:48.907Z,5.02
2022-12-03T00:13:20.053Z,4.56
2022-12-03T00:15:49.900Z,4.58
2022-12-03T00:18:19.472Z,5.19
2022-12-03T00:20:49.381Z,4.62
2022-12-03T00:23:19.228Z,4.85
2022-12-03T00:25:49.017Z,5.34
2022-12-03T00:28:20.327Z,4.62
2022-12-03T00:30:54.434Z,4.87
2022-12-03T00:33:24.589Z,4.46
2022-12-03T00:35:54.183Z,4.92
2022-12-03T00:38:23.698Z,5.17
2022-12-03T00:40:53.608Z,3.93
2022-12-03T00:43:24.763Z,4.28
2022-12-03T00:45:56.496Z,4.26
2022-12-03T00:48:26.600Z,4.35
2022-12-03T00:50:56.351Z,4.81
2022-12-03T00:53:27.605Z,4.78
2022-12-03T00:55:57.327Z,4.42
2022-12-03T00:58:28.765Z,5.07
2022-12-03T01:00:58.362Z,5.02
2022-12-03T01:03:28.108Z,4.72
2022-12-03T01:05:58.192Z,5.26
2022-12-03T01:08:29.073Z,4.45
2022-12-03T01:10:58.858Z,4.89
2022-12-03T01:13:30.823Z,5.21
2022-12-03T01:16:00.455Z,4.62
2022-12-03T01:18:30.262Z,5.16
2022-12-03T01:21:00.290Z,5.20
2022-12-03T01:23:29.904Z,5.17
2022-12-03T01:25:59.539Z,5.23
2022-12-03T01:28:32.144Z,4.70
2022-12-03T01:31:19.295Z,4.72
2022-12-03T01:33:49.234Z,5.17
2022-12-03T01:36:19.199Z,5.42
2022-12-03T01:38:50.730Z,5.03
2022-12-03T01:41:21.284Z,4.62
2022-12-03T01:43:53.858Z,4.89
2022-12-03T01:46:26.753Z,4.43
2022-12-03T01:48:58.634Z,4.28
2022-12-03T01:51:28.373Z,5.17
2022-12-03T01:53:58.154Z,5.15
2022-12-03T01:56:27.974Z,5.32
2022-12-03T01:58:59.719Z,4.75
2022-12-03T02:01:29.893Z,4.88
2022-12-03T02:03:59.860Z,4.77
2022-12-03T02:06:31.168Z,5.10
2022-12-03T02:09:01.229Z,5.16
2022-12-03T02:11:33.283Z,4.80
2022-12-03T02:14:09.950Z,4.93
2022-12-03T02:16:41.074Z,4.83
2022-12-03T02:19:24.121Z,5.04
2022-12-03T02:21:59.518Z,4.94
2022-12-03T02:24:38.239Z,5.26
2022-12-03T02:27:10.032Z,5.17
2022-12-03T02:29:39.883Z,5.30
2022-12-03T02:32:09.513Z,4.66
2022-12-03T02:34:41.905Z,4.89
2022-12-03T02:37:14.174Z,5.07
2022-12-03T02:39:47.986Z,5.34
2022-12-03T02:42:37.143Z,4.51
2022-12-03T02:45:10.178Z,5.14
2022-12-03T02:47:43.958Z,5.12
2022-12-03T02:50:17.678Z,5.25
2022-12-03T02:52:49.337Z,5.04
2022-12-03T02:55:19.980Z,5.00
2022-12-03T02:57:52.333Z,5.56
2022-12-03T03:00:23.831Z,5.45
2022-12-03T03:02:53.933Z,5.45
2022-12-03T03:05:25.212Z,5.34
2022-12-03T03:07:56.019Z,5.57
2022-12-03T03:10:26.150Z,5.24
2022-12-03T03:12:57.651Z,5.53
2022-12-03T03:15:27.640Z,4.42
2022-12-03T03:17:58.014Z,5.15
2022-12-03T03:20:27.745Z,4.88
2022-12-03T03:23:07.669Z,4.93
2022-12-03T03:25:37.328Z,4.88
2022-12-03T03:28:09.960Z,4.62
2022-12-03T03:30:43.944Z,4.60
2022-12-03T03:33:14.814Z,4.07
2022-12-03T03:35:44.671Z,4.92
2022-12-03T03:38:14.901Z,5.28
2022-12-03T03:40:45.169Z,5.33
2022-12-03T03:43:17.028Z,5.58
2022-12-03T03:45:47.302Z,5.26
2022-12-03T03:48:18.080Z,5.57
2022-12-03T03:50:47.950Z,5.55
2022-12-03T03:53:18.068Z,5.34
2022-12-03T03:55:48.347Z,5.26
2022-12-03T03:58:20.625Z,5.22
2022-12-03T04:00:50.419Z,5.18
2022-12-03T04:03:20.251Z,5.09
2022-12-03T04:05:51.324Z,4.69
2022-12-03T04:08:21.014Z,5.25
2022-12-03T04:11:13.703Z,5.56
2022-12-03T04:13:44.748Z,5.03
2022-12-03T04:16:15.029Z,5.26
2022-12-03T04:18:45.453Z,4.94
2022-12-03T04:21:39.501Z,5.33
2022-12-03T04:24:11.384Z,5.05
2022-12-03T04:26:58.624Z,5.20
2022-12-03T04:29:29.910Z,5.04
2022-12-03T04:32:16.610Z,4.95
2022-12-03T04:35:04.038Z,5.19
2022-12-03T04:37:34.672Z,5.28
2022-12-03T04:40:24.950Z,5.18
2022-12-03T04:42:55.151Z,4.93
2022-12-03T04:45:26.633Z,4.81
2022-12-03T04:47:56.303Z,4.81
2022-12-03T04:50:25.988Z,5.06
2022-12-03T04:52:55.834Z,5.17
2022-12-03T04:55:25.826Z,5.17
2022-12-03T04:57:55.634Z,4.91
2022-12-03T05:00:27.283Z,4.96
2022-12-03T05:02:57.591Z,5.47
2022-12-03T05:05:27.247Z,5.32
2022-12-03T05:07:56.782Z,5.33
2022-12-03T05:10:26.638Z,5.08
2022-12-03T05:13:14.674Z,4.99
2022-12-03T05:15:45.833Z,5.44
2022-12-03T05:18:17.681Z,5.43
2022-12-03T05:20:53.251Z,5.31
2022-12-03T05:23:23.578Z,5.31
2022-12-03T05:25:53.393Z,5.19
2022-12-03T05:28:24.568Z,5.28
2022-12-03T05:30:55.826Z,5.46
2022-12-03T05:33:25.468Z,5.19
2022-12-03T05:35:55.387Z,4.60
2022-12-03T05:38:26.571Z,4.98
2022-12-03T05:40:58.674Z,4.86
2022-12-03T05:43:27.865Z,4.96
2022-12-03T05:45:59.327Z,5.06
2022-12-03T05:48:29.277Z,5.59
2022-12-03T05:50:59.000Z,5.57
2022-12-03T05:53:28.783Z,5.49
2022-12-03T05:55:58.398Z,4.72
2022-12-03T05:58:28.058Z,5.20
2022-12-03T06:00:59.503Z,4.71
2022-12-03T06:03:29.737Z,5.04
2022-12-03T06:06:00.194Z,5.23
2022-12-03T06:08:30.414Z,4.98
2022-12-03T06:11:00.108Z,5.22
2022-12-03T06:13:29.708Z,4.71
2022-12-03T06:16:00.922Z,4.72
2022-12-03T06:18:31.028Z,5.34
2022-12-03T06:21:00.800Z,4.90
2022-12-03T06:23:30.498Z,5.22
2022-12-03T06:25:59.813Z,5.24
2022-12-03T06:28:29.063Z,5.19
2022-12-03T06:31:00.690Z,5.31
2022-12-03T06:33:30.493Z,5.35
2022-12-03T06:36:00.082Z,5.45
2022-12-03T06:38:29.939Z,5.33
2022-12-03T06:40:59.824Z,5.23
2022-12-03T06:43:31.488Z,5.44
2022-12-03T06:46:02.943Z,5.38
2022-12-03T06:48:33.684Z,5.43
2022-12-03T06:51:03.498Z,5.38
2022-12-03T06:53:33.099Z,5.03
2022-12-03T06:56:03.167Z,5.32
2022-12-03T06:58:33.363Z,5.03
2022-12-03T07:01:05.444Z,5.34
2022-12-03T07:03:35.229Z,5.42
2022-12-03T07:06:04.940Z,5.55
2022-12-03T07:08:34.609Z,4.75
2022-12-03T07:11:04.204Z,4.42
2022-12-03T07:13:34.229Z,4.97
2022-12-03T07:16:05.970Z,5.29
2022-12-03T07:18:36.362Z,5.10
2022-12-03T07:21:06.900Z,5.15
2022-12-03T07:23:36.879Z,4.87
2022-12-03T07:26:06.804Z,5.19
2022-12-03T07:28:37.218Z,5.53
2022-12-03T07:31:09.420Z,5.25
2022-12-03T07:33:40.259Z,5.17
2022-12-03T07:36:11.346Z,4.98
2022-12-03T07:38:41.405Z,5.06
2022-12-03T07:41:11.037Z,5.42
2022-12-03T07:43:40.696Z,5.83
2022-12-03T07:46:12.175Z,4.70
2022-12-03T07:48:42.063Z,5.40
2022-12-03T07:51:15.230Z,4.98
2022-12-03T07:53:45.338Z,5.27
2022-12-03T07:56:14.915Z,5.12
2022-12-03T07:58:44.658Z,5.50
2022-12-03T08:01:16.686Z,5.52
2022-12-03T08:03:46.969Z,5.29
2022-12-03T08:06:16.809Z,5.25
2022-12-03T08:08:46.677Z,5.75
2022-12-03T08:11:16.550Z,4.78
2022-12-03T08:13:46.209Z,5.15
2022-12-03T08:16:21.674Z,5.24
2022-12-03T08:18:52.174Z,5.02
2022-12-03T08:21:23.575Z,5.67
2022-12-03T08:23:54.118Z,4.77
2022-12-03T08:26:25.814Z,5.41
2022-12-03T08:28:55.989Z,5.69
2022-12-03T08:31:33.162Z,5.64
2022-12-03T08:34:22.200Z,5.50
2022-12-03T08:36:53.933Z,5.24
2022-12-03T08:39:33.892Z,4.65
2022-12-03T08:42:31.170Z,4.64
2022-12-03T08:45:20.263Z,5.08
2022-12-03T08:47:51.393Z,5.63
2022-12-03T08:50:28.868Z,5.30
2022-12-03T08:53:13.058Z,5.18
2022-12-03T08:55:47.839Z,5.34
2022-12-03T08:58:24.019Z,5.16
2022-12-03T09:00:56.962Z,5.64
2022-12-03T09:03:32.643Z,5.54
2022-12-03T09:06:02.271Z,5.91
2022-12-03T09:08:32.123Z,5.91
2022-12-03T09:11:02.471Z,5.53
2022-12-03T09:13:31.743Z,5.52
2022-12-03T09:16:01.075Z,5.76
2022-12-03T09:18:32.923Z,5.27
2022-12-03T09:21:02.539Z,5.43
2022-12-03T09:23:32.618Z,5.54
2022-12-03T09:26:02.164Z,6.06
2022-12-03T09:28:33.224Z,5.59
2022-12-03T09:31:03.320Z,5.67
2022-12-03T09:33:34.204Z,5.54
2022-12-03T09:36:04.051Z,5.95
2022-12-03T09:38:34.288Z,5.99
2022-12-03T09:41:03.740Z,5.26
2022-12-03T09:44:02.840Z,4.57
2022-12-03T09:46:25.008Z,5.59
2022-12-03T09:48:56.848Z,5.43
2022-12-03T09:51:27.415Z,4.40
2022-12-03T09:53:57.540Z,5.04
2022-12-03T09:56:27.213Z,5.57
2022-12-03T09:58:56.794Z,5.42
2022-12-03T10:01:30.090Z,5.52
2022-12-03T10:04:02.821Z,5.53
2022-12-03T10:06:33.163Z,5.78
2022-12-03T10:09:03.199Z,5.85
2022-12-03T10:11:33.579Z,5.84
2022-12-03T10:14:03.747Z,5.49
2022-12-03T10:16:34.066Z,4.98
2022-12-03T10:19:05.219Z,5.39
2022-12-03T10:21:37.977Z,5.76
2022-12-03T10:24:24.204Z,4.79
2022-12-03T10:26:55.811Z,4.69
2022-12-03T10:29:33.235Z,5.01
2022-12-03T10:32:05.553Z,5.62
2022-12-03T10:34:38.069Z,5.54
2022-12-03T10:37:16.405Z,5.77
2022-12-03T10:39:57.722Z,5.51
2022-12-03T10:42:28.363Z,5.79
2022-12-03T10:45:19.251Z,5.59
2022-12-03T10:48:04.905Z,5.67
2022-12-03T10:50:37.210Z,5.17
2022-12-03T10:53:07.093Z,5.35
2022-12-03T10:55:39.299Z,5.17
2022-12-03T10:58:13.690Z,5.66
2022-12-03T11:00:43.525Z,5.61
2022-12-03T11:03:20.358Z,4.63
2022-12-03T11:05:52.395Z,5.00
2022-12-03T11:08:23.781Z,4.88
2022-12-03T11:11:01.191Z,5.22
2022-12-03T11:13:53.629Z,4.34
2022-12-03T11:17:08.141Z,5.22
2022-12-03T11:19:52.211Z,5.06
2022-12-03T11:22:49.148Z,4.86
2022-12-03T11:25:47.330Z,5.54
2022-12-03T11:28:38.348Z,4.81
2022-12-03T11:31:15.176Z,5.48
2022-12-03T11:33:45.222Z,5.88
2022-12-03T11:36:31.536Z,5.01
2022-12-03T11:39:10.694Z,5.15
2022-12-03T11:41:40.258Z,4.60
2022-12-03T11:44:32.333Z,5.22
2022-12-03T11:47:09.309Z,5.34
2022-12-03T11:49:48.838Z,5.38
2022-12-03T11:52:27.912Z,5.55
2022-12-03T11:55:03.333Z,5.54
2022-12-03T11:57:40.599Z,5.77
2022-12-03T12:00:22.887Z,5.78
2022-12-03T12:02:53.279Z,5.51
2022-12-03T12:05:26.936Z,4.52
2022-12-03T12:07:58.243Z,4.81
2022-12-03T12:10:54.420Z,5.22
2022-12-03T12:13:51.434Z,5.23
2022-12-03T12:16:50.524Z,5.43
2022-12-03T12:19:35.109Z,5.53
2022-12-03T12:22:29.743Z,5.71
2022-12-03T12:25:00.261Z,5.42
2022-12-03T12:27:37.593Z,5.13
2022-12-03T12:30:09.513Z,6.16
2022-12-03T12:32:44.213Z,5.38
2022-12-03T12:35:20.261Z,4.50
2022-12-03T12:37:59.231Z,5.29
2022-12-03T12:40:32.133Z,5.96
2022-12-03T12:43:12.447Z,6.19
2022-12-03T12:45:44.545Z,6.04
2022-12-03T12:48:22.662Z,5.84
2022-12-03T12:50:55.524Z,5.74
2022-12-03T12:53:27.324Z,6.01
2022-12-03T12:55:59.654Z,5.70
2022-12-03T12:58:33.000Z,6.07
2022-12-03T13:01:05.823Z,5.75
2022-12-03T13:03:38.603Z,6.06
2022-12-03T13:06:12.893Z,6.23
2022-12-03T13:08:46.213Z,6.32
2022-12-03T13:11:30.094Z,6.13
2022-12-03T13:14:03.998Z,5.47
2022-12-03T13:16:35.663Z,5.75
2022-12-03T13:19:13.852Z,6.31
2022-12-03T13:21:45.723Z,6.02
2022-12-03T13:24:32.270Z,5.95
2022-12-03T13:27:04.489Z,6.25
2022-12-03T13:29:35.886Z,6.15
2022-12-03T13:32:12.525Z,5.90
2022-12-03T13:34:44.659Z,5.86
2022-12-03T13:37:17.685Z,5.96
2022-12-03T13:39:50.277Z,6.14
2022-12-03T13:42:42.400Z,6.35
2022-12-03T13:45:33.227Z,6.43
2022-12-03T13:48:04.974Z,6.26
2022-12-03T13:50:37.652Z,6.05
2022-12-03T13:53:15.319Z,5.73
2022-12-03T13:55:47.195Z,6.10
2022-12-03T13:58:16.928Z,5.83
2022-12-03T14:00:49.823Z,5.17
2022-12-03T14:03:20.178Z,5.59
2022-12-03T14:05:50.244Z,5.59
2022-12-03T14:08:20.077Z,6.30
2022-12-03T14:10:54.239Z,6.02
2022-12-03T14:13:28.639Z,6.36
2022-12-03T14:16:00.043Z,6.22
2022-12-03T14:18:30.553Z,6.39
2022-12-03T14:21:00.718Z,6.36
2022-12-03T14:23:30.717Z,6.28
2022-12-03T14:26:00.481Z,6.40
2022-12-03T14:28:30.734Z,6.44
2022-12-03T14:31:02.218Z,6.20
2022-12-03T14:33:32.298Z,5.22
2022-12-03T14:36:02.854Z,5.90
2022-12-03T14:38:33.114Z,5.89
2022-12-03T14:41:03.760Z,6.06
2022-12-03T14:43:33.805Z,6.17
2022-12-03T14:46:05.594Z,6.08
2022-12-03T14:48:35.503Z,5.99
2022-12-03T14:51:05.654Z,6.00
2022-12-03T14:53:35.446Z,6.20
2022-12-03T14:56:05.600Z,5.90
2022-12-03T14:58:39.519Z,6.16
2022-12-03T15:01:11.632Z,6.11
2022-12-03T15:03:42.089Z,5.76
2022-12-03T15:06:12.409Z,5.69
2022-12-03T15:08:42.284Z,5.92
2022-12-03T15:11:12.973Z,6.03
2022-12-03T15:13:42.907Z,6.21
2022-12-03T15:16:16.335Z,6.19
2022-12-03T15:18:46.363Z,5.32
2022-12-03T15:21:15.733Z,6.07
2022-12-03T15:23:45.480Z,6.04
2022-12-03T15:26:15.404Z,6.14
2022-12-03T15:28:48.222Z,5.94
2022-12-03T15:31:20.210Z,5.76
2022-12-03T15:33:49.603Z,5.51
2022-12-03T15:36:19.814Z,5.62
2022-12-03T15:38:49.354Z,5.94
2022-12-03T15:41:24.793Z,6.09
2022-12-03T15:43:54.534Z,5.26
2022-12-03T15:46:26.306Z,5.82
2022-12-03T15:48:56.435Z,5.87
2022-12-03T15:51:26.603Z,6.13
2022-12-03T15:53:56.766Z,6.03
2022-12-03T15:56:26.730Z,5.78
2022-12-03T15:58:57.082Z,5.56
2022-12-03T16:01:29.055Z,5.28
2022-12-03T16:03:59.389Z,4.80
2022-12-03T16:06:29.608Z,4.97
2022-12-03T16:08:59.873Z,5.76
2022-12-03T16:11:29.831Z,5.57
2022-12-03T16:14:00.010Z,5.88
2022-12-03T16:16:31.388Z,5.48
2022-12-03T16:19:01.705Z,5.27
2022-12-03T16:21:31.697Z,5.53
2022-12-03T16:24:01.970Z,5.92
2022-12-03T16:26:33.606Z,5.98
2022-12-03T16:29:03.776Z,6.18
2022-12-03T16:31:37.206Z,6.18
2022-12-03T16:34:07.489Z,5.69
2022-12-03T16:36:37.283Z,5.94
2022-12-03T16:39:07.235Z,5.88
2022-12-03T16:41:39.238Z,5.83
2022-12-03T16:44:10.043Z,5.83
2022-12-03T16:46:42.349Z,6.07
2022-12-03T16:49:12.638Z,5.77
2022-12-03T16:51:42.799Z,5.97
2022-12-03T16:54:13.009Z,6.26
2022-12-03T16:56:43.374Z,6.15
2022-12-03T16:59:13.759Z,6.27
2022-12-03T17:01:45.886Z,5.67
2022-12-03T17:04:15.259Z,6.14
2022-12-03T17:06:45.001Z,6.04
2022-12-03T17:09:15.503Z,5.88
2022-12-03T17:11:45.355Z,5.90
2022-12-03T17:14:15.337Z,6.19
2022-12-03T17:16:47.403Z,6.29
2022-12-03T17:19:17.938Z,5.95
2022-12-03T17:21:48.255Z,6.09
2022-12-03T17:24:22.133Z,5.74
2022-12-03T17:26:52.179Z,5.74
2022-12-03T17:29:21.920Z,5.93
2022-12-03T17:31:53.483Z,6.10
2022-12-03T17:34:23.768Z,6.02
2022-12-03T17:36:53.870Z,6.34
2022-12-03T17:39:26.623Z,5.87
2022-12-03T17:41:56.229Z,6.35
2022-12-03T17:44:26.080Z,6.28
2022-12-03T17:46:57.244Z,5.78
2022-12-03T17:49:31.545Z,5.65
2022-12-03T17:52:02.008Z,5.67
2022-12-03T17:54:49.359Z,5.35
2022-12-03T17:57:21.701Z,5.75
2022-12-03T17:59:51.704Z,5.89
2022-12-03T18:02:23.494Z,5.89
2022-12-03T18:04:54.858Z,6.19
2022-12-03T18:07:24.715Z,6.25
2022-12-03T18:09:54.692Z,5.64
2022-12-03T18:12:24.732Z,6.18
2022-12-03T18:14:54.844Z,6.00
2022-12-03T18:17:26.463Z,6.11
2022-12-03T18:19:56.763Z,6.33
2022-12-03T18:22:29.526Z,6.20
2022-12-03T18:24:59.264Z,6.02
2022-12-03T18:27:29.403Z,5.54
2022-12-03T18:29:59.534Z,6.08
2022-12-03T18:32:30.626Z,5.97
2022-12-03T18:35:00.303Z,5.92
2022-12-03T18:37:32.138Z,6.03
2022-12-03T18:40:12.127Z,6.27
2022-12-03T18:42:43.478Z,6.12
2022-12-03T18:45:17.399Z,6.09
2022-12-03T18:47:49.992Z,6.08
2022-12-03T18:50:20.441Z,6.11
2022-12-03T18:52:50.616Z,6.42
2022-12-03T18:55:21.326Z,6.51
2022-12-03T18:57:51.103Z,6.28
2022-12-03T19:00:22.060Z,6.49
2022-12-03T19:03:08.637Z,6.21
2022-12-03T19:05:39.009Z,6.19
2022-12-03T19:08:15.066Z,6.25
2022-12-03T19:10:45.183Z,6.06
2022-12-03T19:13:14.803Z,6.37
2022-12-03T19:15:45.859Z,6.42
2022-12-03T19:18:17.432Z,5.82
2022-12-03T19:20:47.975Z,6.08
2022-12-03T19:23:18.078Z,6.09
2022-12-03T19:25:57.668Z,6.31
2022-12-03T19:28:28.201Z,6.30
2022-12-03T19:30:59.337Z,6.09
2022-12-03T19:33:31.823Z,6.23
2022-12-03T19:36:02.224Z,6.47
2022-12-03T19:38:32.930Z,6.08
2022-12-03T19:41:04.284Z,6.12
2022-12-03T19:43:36.628Z,6.43
2022-12-03T19:46:08.316Z,6.40
2022-12-03T19:48:41.994Z,6.32
2022-12-03T19:51:32.947Z,6.42
2022-12-03T19:54:03.813Z,6.16
2022-12-03T19:56:33.561Z,6.21
2022-12-03T19:59:03.649Z,6.18
2022-12-03T20:01:36.021Z,6.10
2022-12-03T20:04:08.923Z,6.02
2022-12-03T20:06:40.168Z,5.65
2022-12-03T20:09:13.183Z,6.11
2022-12-03T20:11:44.783Z,6.15
2022-12-03T20:14:16.220Z,6.10
2022-12-03T20:16:46.195Z,6.07
2022-12-03T20:19:19.385Z,6.13
2022-12-03T20:21:49.249Z,6.10
2022-12-03T20:24:20.969Z,6.26
2022-12-03T20:26:50.828Z,5.79
2022-12-03T20:29:21.163Z,5.93
2022-12-03T20:31:51.481Z,6.33
2022-12-03T20:34:23.133Z,5.89
2022-12-03T20:36:52.899Z,6.30
2022-12-03T20:39:23.275Z,6.39
2022-12-03T20:41:57.189Z,6.41
2022-12-03T20:44:27.568Z,6.01
2022-12-03T20:46:57.527Z,6.01
2022-12-03T20:49:29.738Z,6.23
2022-12-03T20:52:02.848Z,6.54
2022-12-03T20:54:34.859Z,6.56
2022-12-03T20:57:04.853Z,6.53
2022-12-03T20:59:36.773Z,6.19
2022-12-03T21:02:07.310Z,6.17
2022-12-03T21:04:40.669Z,6.11
2022-12-03T21:07:10.598Z,6.10
2022-12-03T21:09:40.901Z,6.37
2022-12-03T21:12:11.133Z,6.13
2022-12-03T21:14:41.772Z,6.36
2022-12-03T21:17:13.153Z,6.11
2022-12-03T21:19:44.288Z,6.42
2022-12-03T21:22:14.404Z,6.18
2022-12-03T21:24:44.271Z,6.22
2022-12-03T21:27:18.469Z,6.16
2022-12-03T21:29:51.560Z,6.35
2022-12-03T21:32:21.400Z,6.35
2022-12-03T21:34:53.037Z,6.43
2022-12-03T21:37:23.263Z,6.52
2022-12-03T21:39:53.952Z,6.23
2022-12-03T21:42:35.853Z,6.18
2022-12-03T21:45:08.778Z,6.02
2022-12-03T21:47:39.469Z,6.09
2022-12-03T21:50:13.011Z,6.26
2022-12-03T21:52:43.439Z,6.17
2022-12-03T21:55:13.151Z,6.42
2022-12-03T21:57:43.801Z,6.43
2022-12-03T22:00:14.984Z,6.38
2022-12-03T22:02:45.340Z,6.46
2022-12-03T22:05:16.844Z,6.53
2022-12-03T22:07:46.716Z,6.51
2022-12-03T22:10:16.238Z,6.38
2022-12-03T22:12:45.667Z,6.29
2022-12-03T22:15:19.117Z,6.07
2022-12-03T22:17:49.708Z,6.19
2022-12-03T22:20:21.332Z,6.27
2022-12-03T22:22:51.271Z,6.27
2022-12-03T22:25:21.056Z,6.29
2022-12-03T22:27:51.343Z,5.99
2022-12-03T22:30:21.904Z,5.76
2022-12-03T22:32:52.629Z,6.14
2022-12-03T22:35:23.990Z,6.11
2022-12-03T22:37:53.983Z,6.23
2022-12-03T22:40:23.804Z,6.31
2022-12-03T22:42:54.813Z,6.53
2022-12-03T22:45:26.480Z,6.57
2022-12-03T22:47:57.289Z,6.63
2022-12-03T22:50:28.584Z,6.67
2022-12-03T22:53:00.502Z,6.67
2022-12-03T22:55:30.711Z,6.68
2022-12-03T22:58:00.489Z,6.61
2022-12-03T23:00:33.383Z,6.00
2022-12-03T23:03:03.138Z,6.11
2022-12-03T23:05:38.924Z,6.02
2022-12-03T23:08:10.850Z,6.32
2022-12-03T23:10:42.952Z,6.59
2022-12-03T23:13:14.376Z,6.50
2022-12-03T23:15:48.883Z,6.59
2022-12-03T23:18:19.733Z,6.73
2022-12-03T23:20:53.731Z,6.41
2022-12-03T23:23:25.866Z,6.52
2022-12-03T23:25:59.833Z,6.35
2022-12-03T23:28:30.974Z,6.43
2022-12-03T23:31:01.200Z,5.75
2022-12-03T23:33:36.669Z,6.19
2022-12-03T23:36:11.205Z,6.06
2022-12-03T23:38:41.471Z,6.44
2022-12-03T23:41:13.540Z,6.57
2022-12-03T23:43:43.536Z,6.60
2022-12-03T23:46:18.396Z,6.54
2022-12-03T23:48:48.496Z,6.60
2022-12-03T23:51:22.214Z,6.61
2022-12-03T23:53:54.006Z,6.30
2022-12-03T23:56:28.238Z,6.40
2022-12-03T23:58:58.016Z,6.44
